createdAt,value
2018-03-11T00:00:25.991Z,12.55
2018-03-11T00:02:54.058Z,12.56
2018-03-11T00:05:23.335Z,12.57
2018-03-11T00:07:51.686Z,12.55
2018-03-11T00:10:20.019Z,12.47
2018-03-11T00:12:48.362Z,12.40
2018-03-11T00:15:16.694Z,12.32
2018-03-11T00:17:45.044Z,12.31
2018-03-11T00:20:13.798Z,12.35
2018-03-11T00:22:42.169Z,12.32
2018-03-11T00:25:10.494Z,12.32
2018-03-11T00:27:38.853Z,12.34
2018-03-11T00:30:07.174Z,12.37
2018-03-11T00:32:35.526Z,12.40
2018-03-11T00:35:03.859Z,12.38
2018-03-11T00:37:32.202Z,12.42
2018-03-11T00:40:00.526Z,12.43
2018-03-11T00:42:28.849Z,12.46
2018-03-11T00:44:57.194Z,12.41
2018-03-11T00:47:25.518Z,12.34
2018-03-11T00:49:53.865Z,12.28
2018-03-11T00:52:22.191Z,12.31
2018-03-11T00:54:50.534Z,12.25
2018-03-11T00:57:18.858Z,12.17
2018-03-11T00:59:47.202Z,12.09
2018-03-11T01:02:15.521Z,12.01
2018-03-11T01:04:43.871Z,12.02
2018-03-11T01:07:12.194Z,12.02
2018-03-11T01:09:40.542Z,12.01
2018-03-11T01:12:08.870Z,12.06
2018-03-11T01:14:37.219Z,12.11
2018-03-11T01:17:05.545Z,12.18
2018-03-11T01:19:33.890Z,12.20
2018-03-11T01:22:02.214Z,12.24
2018-03-11T01:24:30.558Z,12.29
2018-03-11T01:26:58.881Z,12.39
2018-03-11T01:29:27.226Z,12.39
2018-03-11T01:31:55.550Z,12.42
2018-03-11T01:34:23.894Z,12.43
2018-03-11T01:36:52.217Z,12.40
2018-03-11T01:39:20.562Z,12.41
2018-03-11T01:41:48.895Z,12.42
2018-03-11T01:44:17.240Z,12.43
2018-03-11T01:46:45.561Z,12.46
2018-03-11T01:49:13.906Z,12.45
2018-03-11T01:51:42.230Z,12.47
2018-03-11T01:54:10.579Z,12.58
2018-03-11T01:56:38.923Z,12.56
2018-03-11T01:59:07.266Z,12.84
2018-03-11T02:01:35.603Z,12.73
2018-03-11T02:04:03.957Z,12.71
2018-03-11T02:06:32.286Z,12.69
2018-03-11T02:09:00.650Z,12.65
2018-03-11T02:11:28.979Z,12.67
2018-03-11T02:13:57.326Z,12.62
2018-03-11T02:16:26.551Z,12.68
2018-03-11T02:18:54.898Z,12.65
2018-03-11T02:21:23.230Z,12.61
2018-03-11T02:23:51.586Z,12.60
2018-03-11T02:26:19.915Z,12.62
2018-03-11T02:28:48.270Z,12.60
2018-03-11T02:31:16.594Z,12.60
2018-03-11T02:33:44.947Z,12.60
2018-03-11T02:36:13.306Z,12.66
2018-03-11T02:38:41.645Z,12.64
2018-03-11T02:41:09.973Z,12.62
2018-03-11T02:43:38.302Z,12.63
2018-03-11T02:46:07.622Z,12.61
2018-03-11T02:48:35.954Z,12.62
2018-03-11T02:51:04.306Z,12.58
2018-03-11T02:53:32.632Z,12.59
2018-03-11T02:56:00.989Z,12.67
2018-03-11T02:58:29.311Z,12.63
2018-03-11T03:00:57.658Z,12.62
2018-03-11T03:03:25.990Z,12.65
2018-03-11T03:05:54.341Z,12.67
2018-03-11T03:08:22.666Z,12.63
2018-03-11T03:10:51.014Z,12.67
2018-03-11T03:13:19.342Z,12.68
2018-03-11T03:15:47.685Z,12.73
2018-03-11T03:18:16.018Z,12.65
2018-03-11T03:20:44.375Z,12.66
2018-03-11T03:23:12.702Z,12.71
2018-03-11T03:25:41.049Z,12.61
2018-03-11T03:28:09.377Z,12.60
2018-03-11T03:30:37.731Z,12.58
2018-03-11T03:33:06.449Z,12.52
2018-03-11T03:35:34.798Z,12.44
2018-03-11T03:38:03.130Z,12.37
2018-03-11T03:40:31.481Z,12.39
2018-03-11T03:42:59.805Z,12.22
2018-03-11T03:45:28.153Z,12.22
2018-03-11T03:47:56.484Z,12.15
2018-03-11T03:50:24.829Z,12.12
2018-03-11T03:52:53.274Z,12.15
2018-03-11T03:55:21.626Z,12.18
2018-03-11T03:57:49.954Z,12.18
2018-03-11T04:00:18.310Z,12.17
2018-03-11T04:02:46.633Z,12.27
2018-03-11T04:05:14.985Z,12.26
2018-03-11T04:07:43.313Z,12.20
2018-03-11T04:10:11.666Z,12.15
2018-03-11T04:12:40.806Z,12.12
2018-03-11T04:15:09.145Z,12.08
2018-03-11T04:17:37.505Z,12.08
2018-03-11T04:20:05.836Z,12.11
2018-03-11T04:22:34.170Z,12.04
2018-03-11T04:25:02.550Z,11.97
2018-03-11T04:27:30.858Z,11.92
2018-03-11T04:29:59.209Z,11.85
2018-03-11T04:32:27.646Z,11.84
2018-03-11T04:34:56.001Z,11.83
2018-03-11T04:37:24.334Z,11.78
2018-03-11T04:39:52.666Z,11.71
2018-03-11T04:42:21.008Z,11.67
2018-03-11T04:44:49.339Z,11.66
2018-03-11T04:47:17.691Z,11.57
2018-03-11T04:49:46.026Z,11.56
2018-03-11T04:52:15.271Z,11.43
2018-03-11T04:54:43.603Z,11.44
2018-03-11T04:57:11.949Z,11.44
2018-03-11T04:59:40.277Z,11.37
2018-03-11T05:02:08.626Z,11.34
2018-03-11T05:04:36.955Z,11.34
2018-03-11T05:07:05.320Z,11.29
2018-03-11T05:09:33.651Z,11.24
2018-03-11T05:12:02.129Z,11.15
2018-03-11T05:14:30.464Z,11.09
2018-03-11T05:16:58.808Z,11.09
2018-03-11T05:19:27.141Z,11.07
2018-03-11T05:21:55.490Z,11.02
2018-03-11T05:24:23.818Z,11.03
2018-03-11T05:26:52.166Z,10.99
2018-03-11T05:29:20.494Z,11.05
2018-03-11T05:31:48.851Z,10.91
2018-03-11T05:34:17.226Z,10.91
2018-03-11T05:36:45.578Z,10.85
2018-03-11T05:39:13.914Z,10.79
2018-03-11T05:41:42.362Z,10.76
2018-03-11T05:44:10.706Z,10.81
2018-03-11T05:46:39.067Z,10.65
2018-03-11T05:49:07.402Z,10.53
2018-03-11T05:51:35.757Z,10.48
2018-03-11T05:54:04.096Z,10.58
2018-03-11T05:56:32.446Z,10.59
2018-03-11T05:59:00.790Z,10.70
2018-03-11T06:01:29.137Z,10.67
2018-03-11T06:03:57.465Z,10.69
2018-03-11T06:06:25.925Z,10.71
2018-03-11T06:08:54.258Z,10.64
2018-03-11T06:11:22.609Z,10.49
2018-03-11T06:13:50.937Z,10.52
2018-03-11T06:16:19.293Z,10.58
2018-03-11T06:18:47.713Z,10.51
2018-03-11T06:21:16.061Z,10.46
2018-03-11T06:23:44.406Z,10.36
2018-03-11T06:26:12.749Z,10.29
2018-03-11T06:28:41.081Z,10.28
2018-03-11T06:31:09.433Z,10.36
2018-03-11T06:33:37.765Z,10.40
2018-03-11T06:36:06.125Z,10.44
2018-03-11T06:38:34.456Z,10.43
2018-03-11T06:41:02.785Z,10.45
2018-03-11T06:43:31.137Z,10.48
2018-03-11T06:45:59.469Z,10.45
2018-03-11T06:48:27.821Z,10.41
2018-03-11T06:50:56.158Z,10.42
2018-03-11T06:53:24.511Z,10.48
2018-03-11T06:55:52.910Z,10.52
2018-03-11T06:58:21.246Z,10.66
2018-03-11T07:00:49.578Z,10.62
2018-03-11T07:03:17.935Z,10.79
2018-03-11T07:05:46.266Z,10.79
2018-03-11T07:08:14.621Z,10.75
2018-03-11T07:10:42.953Z,10.80
2018-03-11T07:13:11.301Z,10.86
2018-03-11T07:15:39.643Z,11.01
2018-03-11T07:18:07.998Z,11.19
2018-03-11T07:20:36.332Z,11.54
2018-03-11T07:23:04.686Z,11.90
2018-03-11T07:25:33.018Z,12.10
2018-03-11T07:28:01.372Z,12.36
2018-03-11T07:30:29.702Z,12.47
2018-03-11T07:32:58.053Z,12.56
2018-03-11T07:35:26.390Z,12.70
2018-03-11T07:37:54.730Z,12.90
2018-03-11T07:40:23.054Z,13.26
2018-03-11T07:42:51.407Z,13.16
2018-03-11T07:45:19.735Z,13.11
2018-03-11T07:47:48.078Z,13.19
2018-03-11T07:50:16.402Z,13.27
2018-03-11T07:52:44.750Z,13.30
2018-03-11T07:55:13.070Z,13.34
2018-03-11T07:57:41.410Z,13.40
2018-03-11T08:00:09.733Z,13.42
2018-03-11T08:02:38.078Z,13.41
2018-03-11T08:05:06.403Z,13.38
2018-03-11T08:07:34.750Z,13.53
2018-03-11T08:10:03.065Z,13.70
2018-03-11T08:12:31.406Z,13.61
2018-03-11T08:14:59.726Z,13.56
2018-03-11T08:17:28.070Z,13.58
2018-03-11T08:19:56.398Z,13.60
2018-03-11T08:22:24.742Z,13.70
2018-03-11T08:24:53.066Z,13.77
2018-03-11T08:27:21.409Z,14.06
2018-03-11T08:29:49.733Z,14.18
2018-03-11T08:32:18.069Z,14.26
2018-03-11T08:34:46.381Z,14.35
2018-03-11T08:37:14.746Z,14.53
2018-03-11T08:39:43.066Z,14.58
2018-03-11T08:42:11.390Z,14.62
2018-03-11T08:44:39.734Z,14.57
2018-03-11T08:47:08.063Z,14.63
2018-03-11T08:49:36.402Z,14.59
2018-03-11T08:52:04.722Z,14.58
2018-03-11T08:54:33.066Z,14.65
2018-03-11T08:57:01.385Z,14.71
2018-03-11T08:59:29.766Z,15.05
2018-03-11T09:01:58.086Z,15.17
2018-03-11T09:04:26.421Z,15.07
2018-03-11T09:06:54.751Z,15.28
2018-03-11T09:09:23.089Z,15.39
2018-03-11T09:11:51.410Z,15.34
2018-03-11T09:14:19.754Z,15.53
2018-03-11T09:16:48.078Z,15.71
2018-03-11T09:19:16.436Z,15.57
2018-03-11T09:21:44.753Z,15.74
2018-03-11T09:24:13.098Z,15.79
2018-03-11T09:26:41.509Z,15.77
2018-03-11T09:29:09.890Z,15.83
2018-03-11T09:31:38.215Z,15.76
2018-03-11T09:34:06.646Z,15.76
2018-03-11T09:36:34.961Z,15.82
2018-03-11T09:39:03.289Z,15.71
2018-03-11T09:41:31.635Z,15.94
2018-03-11T09:43:59.949Z,15.76
2018-03-11T09:46:28.310Z,15.62
2018-03-11T09:48:56.617Z,15.79
2018-03-11T09:51:24.962Z,15.71
2018-03-11T09:53:53.357Z,15.52
2018-03-11T09:56:21.717Z,15.33
2018-03-11T09:58:50.030Z,15.23
2018-03-11T10:01:18.378Z,15.39
2018-03-11T10:03:46.711Z,15.45
2018-03-11T10:06:15.045Z,15.52
2018-03-11T10:08:43.368Z,15.38
2018-03-11T10:11:11.742Z,15.43
2018-03-11T10:13:40.057Z,15.65
2018-03-11T10:16:09.330Z,15.71
2018-03-11T10:18:37.674Z,15.88
2018-03-11T10:21:05.994Z,15.95
2018-03-11T10:23:34.341Z,15.85
2018-03-11T10:26:03.673Z,16.00
2018-03-11T10:28:33.082Z,15.88
2018-03-11T10:31:01.410Z,16.00
2018-03-11T10:33:29.760Z,16.25
2018-03-11T10:35:58.093Z,16.16
2018-03-11T10:38:27.091Z,16.45
2018-03-11T10:40:55.421Z,16.59
2018-03-11T10:43:23.766Z,16.73
2018-03-11T10:45:52.118Z,16.60
2018-03-11T10:48:20.465Z,16.49
2018-03-11T10:50:49.125Z,16.50
2018-03-11T10:53:17.420Z,16.66
2018-03-11T10:55:45.746Z,16.42
2018-03-11T10:58:14.093Z,16.40
2018-03-11T11:00:43.342Z,16.40
2018-03-11T11:03:17.237Z,16.46
2018-03-11T11:05:45.575Z,16.50
2018-03-11T11:08:13.929Z,16.54
2018-03-11T11:10:42.251Z,16.71
2018-03-11T11:13:10.605Z,16.63
2018-03-11T11:15:38.939Z,16.55
2018-03-11T11:18:07.302Z,16.45
2018-03-11T11:20:35.630Z,16.38
2018-03-11T11:23:03.978Z,16.33
2018-03-11T11:25:32.594Z,16.25
2018-03-11T11:28:00.906Z,16.19
2018-03-11T11:30:29.230Z,16.08
2018-03-11T11:32:57.574Z,16.23
2018-03-11T11:35:25.906Z,16.37
2018-03-11T11:37:54.258Z,16.29
2018-03-11T11:40:22.850Z,16.13
2018-03-11T11:42:51.177Z,16.13
2018-03-11T11:45:19.502Z,16.10
2018-03-11T11:47:47.849Z,16.10
2018-03-11T11:50:16.165Z,16.09
2018-03-11T11:52:44.490Z,16.13
2018-03-11T11:55:12.851Z,16.12
2018-03-11T11:57:41.165Z,16.31
2018-03-11T12:00:10.482Z,16.27
2018-03-11T12:02:38.846Z,16.41
2018-03-11T12:05:07.257Z,16.39
2018-03-11T12:07:35.673Z,16.34
2018-03-11T12:10:04.011Z,16.51
2018-03-11T12:12:32.334Z,16.60
2018-03-11T12:15:00.682Z,16.80
2018-03-11T12:17:28.998Z,16.86
2018-03-11T12:19:58.302Z,17.03
2018-03-11T12:22:26.626Z,17.01
2018-03-11T12:24:54.963Z,16.94
2018-03-11T12:27:23.300Z,16.97
2018-03-11T12:29:51.645Z,16.90
2018-03-11T12:32:20.001Z,17.01
2018-03-11T12:34:48.338Z,16.94
2018-03-11T12:37:16.681Z,16.92
2018-03-11T12:39:46.156Z,16.92
2018-03-11T12:42:14.497Z,17.01
2018-03-11T12:44:42.855Z,17.14
2018-03-11T12:47:11.223Z,17.19
2018-03-11T12:49:39.589Z,17.25
2018-03-11T12:52:07.898Z,17.14
2018-03-11T12:54:36.241Z,17.11
2018-03-11T12:57:04.565Z,16.96
2018-03-11T12:59:32.910Z,17.03
2018-03-11T13:02:01.244Z,17.15
2018-03-11T13:04:29.587Z,17.03
2018-03-11T13:06:57.923Z,17.03
2018-03-11T13:09:26.265Z,16.93
2018-03-11T13:11:54.594Z,17.08
2018-03-11T13:14:23.062Z,17.12
2018-03-11T13:16:51.386Z,16.98
2018-03-11T13:19:19.746Z,16.95
2018-03-11T13:21:48.089Z,16.97
2018-03-11T13:24:16.409Z,17.00
2018-03-11T13:26:44.746Z,16.96
2018-03-11T13:29:13.090Z,16.95
2018-03-11T13:31:41.414Z,16.98
2018-03-11T13:34:21.745Z,16.88
2018-03-11T13:36:50.135Z,16.80
2018-03-11T13:39:30.380Z,16.92
2018-03-11T13:41:58.717Z,16.97
2018-03-11T13:44:27.063Z,17.21
2018-03-11T13:47:04.838Z,17.22
2018-03-11T13:49:33.178Z,17.43
2018-03-11T13:52:13.258Z,17.31
2018-03-11T13:54:41.605Z,17.45
2018-03-11T14:00:13.141Z,17.77
2018-03-11T14:02:41.577Z,17.69
2018-03-11T14:05:09.946Z,17.72
2018-03-11T14:07:38.436Z,17.72
2018-03-11T14:10:07.090Z,17.96
2018-03-11T14:12:41.306Z,17.84
2018-03-11T14:15:11.507Z,17.75
2018-03-11T14:17:39.844Z,17.64
2018-03-11T14:20:08.911Z,17.51
2018-03-11T14:22:37.226Z,17.61
2018-03-11T14:25:05.562Z,17.63
2018-03-11T14:27:33.928Z,17.73
2018-03-11T14:30:02.259Z,17.87
2018-03-11T14:32:30.581Z,17.80
2018-03-11T14:34:58.998Z,17.82
2018-03-11T14:37:27.318Z,17.90
2018-03-11T14:39:55.662Z,17.82
2018-03-11T14:42:24.349Z,17.77
2018-03-11T14:44:53.172Z,17.68
2018-03-11T14:47:21.526Z,17.68
2018-03-11T14:49:49.866Z,17.70
2018-03-11T14:52:18.190Z,17.75
2018-03-11T14:54:46.522Z,17.64
2018-03-11T14:57:14.833Z,17.58
2018-03-11T14:59:43.278Z,17.62
2018-03-11T15:02:11.604Z,17.69
2018-03-11T15:04:39.939Z,17.77
2018-03-11T15:07:08.262Z,17.80
2018-03-11T15:09:36.568Z,17.80
2018-03-11T15:12:04.910Z,17.68
2018-03-11T15:14:33.473Z,17.60
2018-03-11T15:17:02.202Z,17.47
2018-03-11T15:19:30.983Z,17.53
2018-03-11T15:21:59.562Z,17.56
2018-03-11T15:24:28.310Z,17.50
2018-03-11T15:26:57.037Z,17.41
2018-03-11T15:29:25.724Z,17.40
2018-03-11T15:31:54.575Z,17.29
2018-03-11T15:34:23.155Z,17.18
2018-03-11T15:36:51.562Z,17.27
2018-03-11T15:39:19.876Z,17.32
2018-03-11T15:41:48.214Z,17.34
2018-03-11T15:44:16.566Z,17.47
2018-03-11T15:46:44.909Z,17.45
2018-03-11T15:49:13.253Z,17.42
2018-03-11T15:51:41.598Z,17.50
2018-03-11T15:54:09.927Z,17.47
2018-03-11T15:56:39.215Z,17.34
2018-03-11T15:59:07.529Z,17.33
2018-03-11T16:01:35.886Z,17.32
2018-03-11T16:04:04.214Z,17.27
2018-03-11T16:06:33.454Z,17.25
2018-03-11T16:09:01.774Z,17.26
2018-03-11T16:11:30.127Z,17.20
2018-03-11T16:13:58.485Z,17.24
2018-03-11T16:16:26.824Z,17.24
2018-03-11T16:18:55.170Z,17.14
2018-03-11T16:21:23.543Z,16.98
2018-03-11T16:23:51.850Z,16.92
2018-03-11T16:26:21.275Z,16.91
2018-03-11T16:28:49.618Z,16.93
2018-03-11T16:31:17.967Z,17.07
2018-03-11T16:33:46.282Z,16.92
2018-03-11T16:36:15.599Z,16.75
2018-03-11T16:38:43.918Z,16.71
2018-03-11T16:41:12.288Z,16.60
2018-03-11T16:43:40.598Z,16.56
2018-03-11T16:46:09.921Z,16.73
2018-03-11T16:48:38.259Z,16.69
2018-03-11T16:51:06.613Z,16.63
2018-03-11T16:53:34.932Z,16.56
2018-03-11T16:56:04.778Z,16.41
2018-03-11T16:58:33.518Z,16.39
2018-03-11T17:01:01.854Z,16.34
2018-03-11T17:03:30.178Z,16.28
2018-03-11T17:05:58.530Z,16.28
2018-03-11T17:08:26.850Z,16.23
2018-03-11T17:10:55.197Z,16.16
2018-03-11T17:13:23.518Z,16.15
2018-03-11T17:15:51.873Z,16.10
2018-03-11T17:18:20.214Z,16.15
2018-03-11T17:20:48.550Z,16.17
2018-03-11T17:23:16.883Z,16.09
2018-03-11T17:25:45.274Z,16.04
2018-03-11T17:28:13.602Z,16.00
2018-03-11T17:30:41.929Z,15.97
2018-03-11T17:33:10.265Z,15.90
2018-03-11T17:35:38.585Z,15.88
2018-03-11T17:38:06.930Z,15.82
2018-03-11T17:40:35.257Z,15.72
2018-03-11T17:43:03.611Z,15.70
2018-03-11T17:45:31.938Z,15.68
2018-03-11T17:48:00.289Z,15.65
2018-03-11T17:50:28.613Z,15.65
2018-03-11T17:52:56.943Z,15.63
2018-03-11T17:55:25.706Z,15.68
2018-03-11T17:57:54.038Z,15.68
2018-03-11T18:00:22.358Z,15.65
2018-03-11T18:02:50.697Z,15.66
2018-03-11T18:05:19.010Z,15.63
2018-03-11T18:07:47.349Z,15.60
2018-03-11T18:10:15.665Z,15.62
2018-03-11T18:12:44.009Z,15.55
2018-03-11T18:15:12.385Z,15.54
2018-03-11T18:17:40.726Z,15.51
2018-03-11T18:20:09.038Z,15.44
2018-03-11T18:22:37.378Z,15.40
2018-03-11T18:25:05.693Z,15.32
2018-03-11T18:27:34.026Z,15.25
2018-03-11T18:30:02.380Z,15.23
2018-03-11T18:32:30.824Z,15.19
2018-03-11T18:34:59.147Z,15.13
2018-03-11T18:37:27.490Z,15.01
2018-03-11T18:39:55.809Z,14.97
2018-03-11T18:42:24.145Z,14.90
2018-03-11T18:44:52.462Z,14.84
2018-03-11T18:47:20.798Z,14.81
2018-03-11T18:49:49.151Z,14.79
2018-03-11T18:52:17.482Z,14.80
2018-03-11T18:54:45.793Z,14.81
2018-03-11T18:57:14.178Z,14.87
2018-03-11T18:59:42.564Z,14.86
2018-03-11T19:02:10.914Z,14.81
2018-03-11T19:04:39.230Z,14.81
2018-03-11T19:07:07.578Z,14.80
2018-03-11T19:09:35.893Z,14.79
2018-03-11T19:12:04.231Z,14.79
2018-03-11T19:14:32.541Z,14.73
2018-03-11T19:17:00.903Z,14.65
2018-03-11T19:19:29.234Z,14.64
2018-03-11T19:21:57.945Z,14.59
2018-03-11T19:24:26.285Z,14.54
2018-03-11T19:26:54.607Z,14.53
2018-03-11T19:29:22.956Z,14.54
2018-03-11T19:31:51.282Z,14.51
2018-03-11T19:34:19.624Z,14.46
2018-03-11T19:36:47.946Z,14.44
2018-03-11T19:39:16.278Z,14.42
2018-03-11T19:41:44.595Z,14.37
2018-03-11T19:44:12.926Z,14.30
2018-03-11T19:46:41.242Z,14.27
2018-03-11T19:49:09.582Z,14.23
2018-03-11T19:51:37.901Z,14.22
2018-03-11T19:54:06.256Z,14.23
2018-03-11T19:56:34.572Z,14.19
2018-03-11T19:59:02.910Z,14.17
2018-03-11T20:01:31.226Z,14.22
2018-03-11T20:03:59.579Z,14.32
2018-03-11T20:06:28.858Z,14.28
2018-03-11T20:08:57.197Z,14.18
2018-03-11T20:11:25.554Z,14.10
2018-03-11T20:13:53.885Z,14.05
2018-03-11T20:16:22.206Z,14.03
2018-03-11T20:18:50.551Z,13.96
2018-03-11T20:21:18.862Z,13.96
2018-03-11T20:23:47.207Z,13.89
2018-03-11T20:26:15.526Z,13.84
2018-03-11T20:28:43.866Z,13.82
2018-03-11T20:31:12.192Z,13.80
2018-03-11T20:33:40.534Z,13.78
2018-03-11T20:36:09.814Z,13.78
2018-03-11T20:38:38.158Z,13.75
2018-03-11T20:41:06.481Z,13.67
2018-03-11T20:43:34.826Z,13.69
2018-03-11T20:46:05.661Z,13.48
2018-03-11T20:48:33.999Z,13.52
2018-03-11T20:51:02.321Z,13.35
2018-03-11T20:53:30.649Z,13.35
2018-03-11T20:55:58.965Z,13.35
2018-03-11T20:58:27.310Z,13.35
2018-03-11T21:00:55.639Z,13.34
2018-03-11T21:03:23.973Z,13.35
2018-03-11T21:05:52.294Z,13.33
2018-03-11T21:08:20.643Z,13.27
2018-03-11T21:10:48.962Z,13.25
2018-03-11T21:13:17.273Z,13.24
2018-03-11T21:15:45.613Z,13.21
2018-03-11T21:18:13.940Z,13.19
2018-03-11T21:20:42.266Z,13.19
2018-03-11T21:23:10.578Z,13.11
2018-03-11T21:25:38.922Z,13.07
2018-03-11T21:28:07.234Z,13.02
2018-03-11T21:30:35.574Z,12.98
2018-03-11T21:33:03.886Z,12.98
2018-03-11T21:35:32.217Z,12.91
2018-03-11T21:38:00.532Z,12.84
2018-03-11T21:40:28.881Z,12.78
2018-03-11T21:42:57.198Z,12.80
2018-03-11T21:45:26.598Z,12.76
2018-03-11T21:47:54.918Z,12.67
2018-03-11T21:50:23.258Z,12.64
2018-03-11T21:52:51.582Z,12.53
2018-03-11T21:55:19.937Z,12.61
2018-03-11T21:57:48.262Z,12.52
2018-03-11T22:00:16.581Z,12.45
2018-03-11T22:02:44.921Z,12.47
2018-03-11T22:05:13.297Z,12.42
2018-03-11T22:07:41.642Z,12.41
2018-03-11T22:10:09.970Z,12.42
2018-03-11T22:12:38.314Z,12.36
2018-03-11T22:15:06.640Z,12.30
2018-03-11T22:17:34.983Z,12.24
2018-03-11T22:20:03.307Z,12.19
2018-03-11T22:22:31.661Z,12.08
2018-03-11T22:24:59.990Z,12.03
2018-03-11T22:27:28.342Z,12.03
2018-03-11T22:29:56.669Z,12.00
2018-03-11T22:32:25.019Z,12.01
2018-03-11T22:34:53.346Z,11.98
2018-03-11T22:37:21.710Z,11.92
2018-03-11T22:39:50.036Z,11.85
2018-03-11T22:42:18.362Z,11.82
2018-03-11T22:44:46.706Z,11.75
2018-03-11T22:47:15.030Z,11.76
2018-03-11T22:49:43.368Z,11.62
2018-03-11T22:52:11.693Z,11.55
2018-03-11T22:54:40.034Z,11.53
2018-03-11T22:57:08.358Z,11.55
2018-03-11T22:59:36.705Z,11.49
2018-03-11T23:02:05.025Z,11.52
2018-03-11T23:04:33.365Z,11.49
2018-03-11T23:07:01.685Z,11.47
2018-03-11T23:09:30.025Z,11.42
2018-03-11T23:11:58.370Z,11.41
2018-03-11T23:14:26.721Z,11.37
2018-03-11T23:16:55.041Z,11.34
2018-03-11T23:19:23.378Z,11.33
2018-03-11T23:21:51.697Z,11.26
2018-03-11T23:24:20.015Z,11.24
2018-03-11T23:26:48.349Z,11.23
2018-03-11T23:29:16.661Z,11.16
2018-03-11T23:31:45.002Z,11.14
2018-03-11T23:36:47.978Z,11.16
2018-03-11T23:39:16.290Z,11.08
2018-03-11T23:41:44.638Z,11.09
2018-03-11T23:44:12.945Z,11.12
2018-03-11T23:46:41.294Z,11.18
2018-03-11T23:49:09.622Z,11.15
2018-03-11T23:51:37.957Z,11.09
2018-03-11T23:54:06.278Z,11.07
2018-03-11T23:56:34.626Z,11.07
2018-03-11T23:59:02.954Z,10.95
